createdAt,value
2023-02-06T01:55:17.593Z,19.05
2023-02-06T01:58:38.569Z,16.58
2023-02-06T02:01:58.053Z,14.82
2023-02-06T02:42:10.306Z,17.60
2023-02-06T02:49:04.730Z,18.58
2023-02-06T02:55:47.798Z,19.33
2023-02-06T03:12:23.823Z,37.35
2023-02-06T03:15:17.976Z,34.30
2023-02-06T03:17:59.670Z,28.45
2023-02-06T03:20:45.525Z,36.38
2023-02-06T03:26:58.155Z,30.10
2023-02-06T03:34:14.140Z,19.02
2023-02-06T03:37:19.602Z,11.73
2023-02-06T03:39:54.007Z,13.48
2023-02-06T03:42:31.299Z,11.50
2023-02-06T03:48:30.015Z,13.25
2023-02-06T03:54:40.550Z,9.65
2023-02-06T03:58:01.557Z,12.20
2023-02-06T04:01:02.227Z,20.15
2023-02-06T04:03:59.293Z,15.40
2023-02-06T04:06:27.496Z,18.92
2023-02-06T04:08:55.252Z,15.80
2023-02-06T04:11:23.130Z,13.27
2023-02-06T04:13:53.507Z,11.40
2023-02-06T04:26:30.845Z,13.27
2023-02-06T04:29:06.911Z,17.73
2023-02-06T04:35:21.130Z,17.48
2023-02-06T04:37:51.157Z,16.05
2023-02-06T04:40:21.782Z,19.27
2023-02-06T04:43:01.966Z,19.27
2023-02-06T04:45:39.280Z,14.32
2023-02-06T04:48:20.501Z,16.20
2023-02-06T04:51:12.703Z,18.75
2023-02-06T04:54:33.690Z,9.52
2023-02-06T04:57:27.065Z,14.13
2023-02-06T05:00:14.954Z,11.57
2023-02-06T05:03:30.137Z,12.13
2023-02-06T05:06:09.465Z,16.27
2023-02-06T05:08:40.465Z,15.57
2023-02-06T05:11:16.333Z,19.23
2023-02-06T05:15:02.008Z,13.00
2023-02-06T05:18:09.279Z,13.60
2023-02-06T05:20:55.528Z,12.40
2023-02-06T05:24:39.073Z,15.38
2023-02-06T05:31:47.765Z,20.83
2023-02-06T05:35:18.764Z,24.95
2023-02-06T05:41:12.961Z,21.77
2023-02-06T05:51:03.810Z,21.70
2023-02-06T06:06:27.008Z,32.78
2023-02-06T06:13:50.892Z,23.20
2023-02-06T06:22:33.637Z,20.20
2023-02-06T06:28:03.330Z,20.95
2023-02-06T07:00:38.209Z,28.83
2023-02-06T07:03:06.354Z,24.17
2023-02-06T07:05:34.481Z,30.20
2023-02-06T07:08:01.627Z,21.48
2023-02-06T07:10:28.982Z,25.52
2023-02-06T07:12:56.826Z,22.63
2023-02-06T07:15:24.216Z,19.95
2023-02-06T07:17:51.547Z,19.83
2023-02-06T07:20:18.702Z,19.05
2023-02-06T07:22:47.557Z,14.30
2023-02-06T07:25:14.686Z,20.08
2023-02-06T07:27:41.721Z,24.08
2023-02-06T07:30:09.789Z,20.25
2023-02-06T07:32:37.409Z,25.58
2023-02-06T07:35:05.209Z,26.45
2023-02-06T07:37:32.457Z,24.50
2023-02-06T07:39:59.854Z,18.90
2023-02-06T07:42:26.953Z,20.50
2023-02-06T07:45:00.909Z,15.43
2023-02-06T07:47:28.001Z,13.55
2023-02-06T07:49:55.141Z,13.02
2023-02-06T07:52:22.520Z,14.38
2023-02-06T07:54:49.561Z,16.08
2023-02-06T07:57:17.473Z,16.42
2023-02-06T07:59:44.580Z,17.45
2023-02-06T08:02:12.451Z,13.73
2023-02-06T08:04:39.665Z,19.13
2023-02-06T08:07:09.929Z,18.00
2023-02-06T08:09:37.058Z,21.38
2023-02-06T08:12:04.254Z,18.95
2023-02-06T08:14:31.657Z,16.63
2023-02-06T08:16:58.841Z,18.40
2023-02-06T08:19:25.915Z,15.35
2023-02-06T08:21:54.833Z,14.70
2023-02-06T08:24:21.954Z,11.32
2023-02-06T08:26:49.063Z,15.73
2023-02-06T08:29:16.228Z,17.52
2023-02-06T08:31:44.476Z,9.48
2023-02-06T08:34:14.537Z,14.02
2023-02-06T08:36:43.541Z,12.68
2023-02-06T08:39:13.712Z,11.77
2023-02-06T08:41:42.769Z,10.68
2023-02-06T08:44:16.194Z,14.38
2023-02-06T08:46:45.028Z,11.35
2023-02-06T08:49:17.959Z,17.58
2023-02-06T08:51:45.776Z,17.50
2023-02-06T08:54:15.889Z,18.75
2023-02-06T08:56:43.089Z,18.60
2023-02-06T08:59:11.484Z,16.38
2023-02-06T09:01:39.193Z,14.35
2023-02-06T09:04:09.559Z,13.57
2023-02-06T09:06:39.067Z,15.73
2023-02-06T09:09:07.842Z,13.18
2023-02-06T09:11:35.116Z,12.02
2023-02-06T09:14:04.419Z,14.18
2023-02-06T09:16:34.721Z,19.50
2023-02-06T09:19:02.675Z,10.65
2023-02-06T09:21:32.052Z,12.73
2023-02-06T09:24:02.908Z,14.98
2023-02-06T09:26:44.869Z,12.10
2023-02-06T09:29:20.713Z,19.30
2023-02-06T09:31:47.857Z,17.40
2023-02-06T09:34:15.072Z,16.38
2023-02-06T09:36:42.218Z,16.33
2023-02-06T09:39:09.679Z,106.35
2023-02-06T09:42:15.416Z,22.10
2023-02-06T09:44:49.127Z,13.95
2023-02-06T09:47:25.313Z,11.45
2023-02-06T09:49:56.357Z,14.00
2023-02-06T09:52:29.488Z,11.65
2023-02-06T09:55:30.099Z,11.15
2023-02-06T09:57:57.245Z,13.45
2023-02-06T10:00:46.684Z,13.13
2023-02-06T10:03:20.802Z,13.02
2023-02-06T10:06:02.826Z,14.75
2023-02-06T10:08:39.260Z,16.98
2023-02-06T10:11:17.349Z,13.57
2023-02-06T10:13:58.338Z,13.50
2023-02-06T10:17:06.064Z,14.95
2023-02-06T10:19:48.381Z,13.38
2023-02-06T10:22:31.616Z,16.38
2023-02-06T10:25:07.780Z,14.50
2023-02-06T10:27:37.722Z,24.35
2023-02-06T10:30:05.132Z,30.35
2023-02-06T10:32:57.105Z,13.30
2023-02-06T10:35:48.747Z,24.67
2023-02-06T10:38:51.788Z,19.88
2023-02-06T10:41:21.823Z,13.95
2023-02-06T10:44:08.069Z,12.40
2023-02-06T10:46:45.971Z,13.25
2023-02-06T10:49:45.374Z,12.88
2023-02-06T10:52:30.200Z,17.65
2023-02-06T10:55:13.048Z,16.25
2023-02-06T10:57:43.069Z,17.50
2023-02-06T11:00:26.951Z,20.75
2023-02-06T11:03:07.050Z,10.80
2023-02-06T11:05:36.845Z,12.98
2023-02-06T11:08:10.010Z,15.88
2023-02-06T11:13:14.402Z,10.13
2023-02-06T11:15:50.497Z,10.20
2023-02-06T11:18:26.140Z,11.18
2023-02-06T11:23:43.926Z,16.08
2023-02-06T11:26:40.190Z,11.60
2023-02-06T11:29:19.992Z,10.35
2023-02-06T11:32:00.755Z,12.60
2023-02-06T11:34:32.491Z,23.52
2023-02-06T11:37:03.239Z,12.80
2023-02-06T11:39:39.502Z,9.57
2023-02-06T11:42:18.368Z,9.15
2023-02-06T11:44:48.951Z,9.20
2023-02-06T11:47:38.094Z,10.98
2023-02-06T11:51:06.463Z,11.10
2023-02-06T11:54:25.022Z,8.23
2023-02-06T12:06:42.057Z,100.72
2023-02-06T12:09:13.048Z,17.88
2023-02-06T12:15:43.622Z,26.40
2023-02-06T12:18:28.121Z,11.30
2023-02-06T12:21:26.528Z,11.77
2023-02-06T12:24:00.053Z,9.35
2023-02-06T12:26:40.518Z,7.10
2023-02-06T12:29:20.423Z,8.65
2023-02-06T12:36:25.796Z,10.98
2023-02-06T12:39:02.971Z,11.85
2023-02-06T12:48:15.893Z,15.40
2023-02-06T12:51:21.395Z,11.77
2023-02-06T12:56:41.853Z,11.70
2023-02-06T12:59:55.674Z,9.50
2023-02-06T13:02:47.682Z,9.13
2023-02-06T13:05:40.781Z,18.20
2023-02-06T13:11:29.808Z,12.77
2023-02-06T13:14:16.880Z,19.52
2023-02-06T13:16:57.258Z,10.73
2023-02-06T13:19:30.873Z,22.45
2023-02-06T13:22:10.509Z,16.77
2023-02-06T13:24:39.573Z,11.30
2023-02-06T13:27:07.677Z,14.85
2023-02-06T13:29:48.980Z,12.60
2023-02-06T13:35:13.684Z,9.18
2023-02-06T13:37:48.272Z,11.55
2023-02-06T13:40:29.114Z,9.38
2023-02-06T13:43:11.170Z,13.05
2023-02-06T13:45:57.810Z,13.43
2023-02-06T13:51:50.396Z,16.85
2023-02-06T13:54:53.419Z,12.80
2023-02-06T14:00:24.285Z,11.25
2023-02-06T14:02:56.453Z,13.88
2023-02-06T14:05:41.085Z,19.27
2023-02-06T14:08:49.569Z,10.65
2023-02-06T14:11:32.875Z,10.65
2023-02-06T14:14:28.444Z,12.88
2023-02-06T14:17:11.918Z,10.63
2023-02-06T14:19:48.257Z,17.25
2023-02-06T14:25:25.361Z,14.10
2023-02-06T14:28:20.234Z,14.30
2023-02-06T14:35:03.165Z,12.05
2023-02-06T14:37:42.684Z,10.65
2023-02-06T14:40:28.360Z,11.32
2023-02-06T14:43:03.460Z,11.63
2023-02-06T14:45:42.479Z,9.90
2023-02-06T14:48:26.529Z,10.85
2023-02-06T14:57:39.507Z,15.38
2023-02-06T15:00:29.422Z,15.00
2023-02-06T15:03:27.210Z,16.30
2023-02-06T15:06:12.613Z,8.60
2023-02-06T15:08:53.766Z,10.52
2023-02-06T15:11:41.156Z,17.38
2023-02-06T15:14:44.072Z,14.50
2023-02-06T15:17:30.777Z,15.98
2023-02-06T15:20:25.337Z,13.23
2023-02-06T15:23:44.610Z,12.73
2023-02-06T15:29:41.150Z,19.67
2023-02-06T15:32:34.129Z,17.52
2023-02-06T15:35:02.688Z,10.65
2023-02-06T15:37:38.802Z,24.70
2023-02-06T15:40:34.372Z,18.50
2023-02-06T15:43:03.960Z,17.38
2023-02-06T15:45:40.602Z,17.27
2023-02-06T15:48:19.715Z,16.63
2023-02-06T15:51:15.215Z,17.33
2023-02-06T15:57:31.819Z,14.52
2023-02-06T16:00:20.536Z,17.13
2023-02-06T16:03:05.353Z,16.08
2023-02-06T16:05:41.801Z,23.17
2023-02-06T20:14:34.640Z,64.85
2023-02-06T20:17:35.331Z,83.57
2023-02-06T20:35:45.791Z,74.38
2023-02-06T20:38:26.231Z,70.10
2023-02-06T20:44:22.638Z,81.95
2023-02-06T20:50:32.796Z,105.47
2023-02-06T20:53:27.219Z,95.10
2023-02-06T20:56:20.792Z,89.75
2023-02-06T20:58:54.432Z,91.93
2023-02-06T21:04:23.898Z,89.35
2023-02-06T21:07:03.075Z,73.28
2023-02-06T21:09:52.729Z,66.60
2023-02-06T21:12:49.538Z,70.30
2023-02-06T21:15:44.505Z,83.57
2023-02-06T21:18:42.110Z,120.40
2023-02-06T21:24:19.522Z,140.05
2023-02-06T21:27:19.661Z,116.53
2023-02-06T21:30:14.658Z,121.13
2023-02-06T21:33:04.863Z,116.22
2023-02-06T21:35:41.753Z,150.45
2023-02-06T21:38:51.732Z,125.78
2023-02-06T21:48:38.475Z,76.57
2023-02-06T21:54:31.558Z,91.28
2023-02-06T22:00:41.325Z,85.30
2023-02-06T22:03:20.334Z,89.00
2023-02-06T22:05:54.688Z,92.30
2023-02-06T22:08:26.444Z,96.88
2023-02-06T22:11:00.320Z,90.07
2023-02-06T22:13:39.050Z,92.53
2023-02-06T22:16:16.149Z,88.28
2023-02-06T22:18:56.363Z,73.40
2023-02-06T22:21:33.684Z,79.15
2023-02-06T22:30:48.639Z,61.22
2023-02-06T22:34:05.217Z,49.15
2023-02-06T22:36:43.359Z,59.28
2023-02-06T22:40:32.925Z,64.25
2023-02-06T22:47:43.717Z,41.33
2023-02-06T22:57:10.448Z,44.67
